createdAt,value
2023-05-21T00:00:12.970Z,9.93
2023-05-21T00:02:41.939Z,9.65
2023-05-21T00:05:15.572Z,8.80
2023-05-21T00:07:44.512Z,9.82
2023-05-21T00:10:13.606Z,9.90
2023-05-21T00:12:42.768Z,9.45
2023-05-21T00:15:12.704Z,9.13
2023-05-21T00:17:41.989Z,10.15
2023-05-21T00:20:13.338Z,9.73
2023-05-21T00:22:42.531Z,9.63
2023-05-21T00:25:12.423Z,9.27
2023-05-21T00:27:41.240Z,9.30
2023-05-21T00:30:10.906Z,9.73
2023-05-21T00:32:39.686Z,9.88
2023-05-21T00:35:11.254Z,9.18
2023-05-21T00:37:40.955Z,9.27
2023-05-21T00:40:11.771Z,9.85
2023-05-21T00:42:41.342Z,9.60
2023-05-21T00:45:11.152Z,8.40
2023-05-21T00:47:41.917Z,8.52
2023-05-21T00:50:15.183Z,10.05
2023-05-21T00:52:45.893Z,9.30
2023-05-21T00:55:14.560Z,8.88
2023-05-21T00:57:43.651Z,9.55
2023-05-21T01:00:15.256Z,10.05
2023-05-21T01:02:44.463Z,9.23
2023-05-21T01:05:15.507Z,10.20
2023-05-21T01:07:44.254Z,9.07
2023-05-21T01:10:13.612Z,9.45
2023-05-21T01:12:45.664Z,9.73
2023-05-21T01:15:14.788Z,8.82
2023-05-21T01:17:46.258Z,9.73
2023-05-21T01:20:19.125Z,9.43
2023-05-21T01:22:55.964Z,9.23
2023-05-21T01:25:26.441Z,9.00
2023-05-21T01:27:55.059Z,9.65
2023-05-21T01:30:25.009Z,9.35
2023-05-21T01:33:01.924Z,9.60
2023-05-21T01:35:34.987Z,9.60
2023-05-21T01:38:14.656Z,9.73
2023-05-21T01:40:49.753Z,9.50
2023-05-21T01:43:18.680Z,10.55
2023-05-21T01:45:48.898Z,9.65
2023-05-21T01:48:18.661Z,10.30
2023-05-21T01:50:47.508Z,9.88
2023-05-21T01:53:17.474Z,10.15
2023-05-21T01:55:46.105Z,9.65
2023-05-21T01:58:15.777Z,9.00
2023-05-21T02:00:45.613Z,10.00
2023-05-21T02:03:16.510Z,9.13
2023-05-21T02:05:45.412Z,10.15
2023-05-21T02:08:15.435Z,10.00
2023-05-21T02:10:45.496Z,9.25
2023-05-21T02:13:14.102Z,10.10
2023-05-21T02:15:43.161Z,9.18
2023-05-21T02:18:11.727Z,9.40
2023-05-21T02:20:40.132Z,9.68
2023-05-21T02:23:08.614Z,9.90
2023-05-21T02:25:37.782Z,10.18
2023-05-21T02:28:07.933Z,9.48
2023-05-21T02:30:36.681Z,9.43
2023-05-21T02:33:05.314Z,9.70
2023-05-21T02:35:35.189Z,9.50
2023-05-21T02:38:09.214Z,9.73
2023-05-21T02:40:37.661Z,9.52
2023-05-21T02:43:07.485Z,9.55
2023-05-21T02:45:36.206Z,9.55
2023-05-21T02:48:05.210Z,9.63
2023-05-21T02:50:38.026Z,9.13
2023-05-21T02:53:06.536Z,10.35
2023-05-21T02:55:35.847Z,10.48
2023-05-21T02:58:04.567Z,9.55
2023-05-21T03:00:34.561Z,9.25
2023-05-21T03:03:03.213Z,10.00
2023-05-21T03:05:31.878Z,9.35
2023-05-21T03:08:00.464Z,9.32
2023-05-21T03:10:28.956Z,10.18
2023-05-21T03:12:57.470Z,9.85
2023-05-21T03:15:25.965Z,10.38
2023-05-21T03:17:55.909Z,10.43
2023-05-21T03:20:25.087Z,9.80
2023-05-21T03:22:54.903Z,9.65
2023-05-21T03:25:25.208Z,9.25
2023-05-21T03:27:55.000Z,9.85
2023-05-21T03:30:46.552Z,9.68
2023-05-21T03:33:35.498Z,10.13
2023-05-21T03:36:15.368Z,11.32
2023-05-21T03:38:44.560Z,10.07
2023-05-21T03:41:13.787Z,9.52
2023-05-21T03:43:44.887Z,10.00
2023-05-21T03:46:13.522Z,10.05
2023-05-21T03:49:02.670Z,10.57
2023-05-21T03:51:33.194Z,10.38
2023-05-21T03:54:02.123Z,10.35
2023-05-21T03:56:30.620Z,9.15
2023-05-21T03:58:59.159Z,10.52
2023-05-21T04:01:28.466Z,10.98
2023-05-21T04:03:58.784Z,10.45
2023-05-21T04:06:30.463Z,11.07
2023-05-21T04:08:59.551Z,10.73
2023-05-21T04:11:28.005Z,9.55
2023-05-21T04:13:56.793Z,9.93
2023-05-21T04:16:25.366Z,10.38
2023-05-21T04:18:56.409Z,9.93
2023-05-21T04:21:29.262Z,9.60
2023-05-21T04:23:58.509Z,9.85
2023-05-21T04:26:38.251Z,9.32
2023-05-21T04:29:06.996Z,10.10
2023-05-21T04:31:36.931Z,9.80
2023-05-21T04:34:06.443Z,9.73
2023-05-21T04:36:36.351Z,9.73
2023-05-21T04:39:06.335Z,9.43
2023-05-21T04:41:34.837Z,9.63
2023-05-21T04:44:03.328Z,9.18
2023-05-21T04:46:34.980Z,10.63
2023-05-21T04:49:04.017Z,9.10
2023-05-21T04:51:33.391Z,9.32
2023-05-21T04:54:04.036Z,9.30
2023-05-21T04:56:32.920Z,9.98
2023-05-21T04:59:05.435Z,9.50
2023-05-21T05:01:35.923Z,10.35
2023-05-21T05:04:04.675Z,10.23
2023-05-21T05:06:33.471Z,10.75
2023-05-21T05:09:04.628Z,10.13
2023-05-21T05:11:33.254Z,10.40
2023-05-21T05:14:01.710Z,10.55
2023-05-21T05:16:31.333Z,10.13
2023-05-21T05:18:59.952Z,10.63
2023-05-21T05:21:44.707Z,9.30
2023-05-21T05:24:16.455Z,10.35
2023-05-21T05:26:51.614Z,11.73
2023-05-21T05:29:31.057Z,10.30
2023-05-21T05:32:00.044Z,10.18
2023-05-21T05:34:36.881Z,10.23
2023-05-21T05:37:07.565Z,10.23
2023-05-21T05:39:44.050Z,10.30
2023-05-21T05:42:13.107Z,10.13
2023-05-21T05:44:42.149Z,10.05
2023-05-21T05:47:48.697Z,10.32
2023-05-21T05:50:18.003Z,10.18
2023-05-21T05:52:49.080Z,9.77
2023-05-21T05:55:19.405Z,9.85
2023-05-21T05:57:54.761Z,10.15
2023-05-21T06:00:26.361Z,10.45
2023-05-21T06:02:55.244Z,10.45
2023-05-21T06:05:23.965Z,9.68
2023-05-21T06:07:52.498Z,9.85
2023-05-21T06:10:23.104Z,10.30
2023-05-21T06:12:51.618Z,10.45
2023-05-21T06:15:28.403Z,10.48
2023-05-21T06:17:57.483Z,10.52
2023-05-21T06:20:26.159Z,10.90
2023-05-21T06:22:54.667Z,10.18
2023-05-21T06:25:25.804Z,10.45
2023-05-21T06:27:54.518Z,11.32
2023-05-21T06:30:27.165Z,11.48
2023-05-21T06:32:55.802Z,11.00
2023-05-21T06:35:24.570Z,9.82
2023-05-21T06:37:53.028Z,9.55
2023-05-21T06:40:23.410Z,10.27
2023-05-21T06:42:56.346Z,9.20
2023-05-21T06:45:43.658Z,9.43
2023-05-21T06:48:35.366Z,10.38
2023-05-21T06:51:05.604Z,10.32
2023-05-21T06:53:34.060Z,9.82
2023-05-21T06:56:03.985Z,9.73
2023-05-21T06:58:42.023Z,10.07
2023-05-21T07:01:11.730Z,9.80
2023-05-21T07:03:40.365Z,9.23
2023-05-21T07:06:10.245Z,9.77
2023-05-21T07:08:38.870Z,9.38
2023-05-21T07:11:08.701Z,9.55
2023-05-21T07:13:37.822Z,9.25
2023-05-21T07:16:07.264Z,9.48
2023-05-21T07:18:35.778Z,9.07
2023-05-21T07:21:04.416Z,8.55
2023-05-21T07:23:32.974Z,9.88
2023-05-21T07:26:01.530Z,8.90
2023-05-21T07:28:31.387Z,9.45
2023-05-21T07:30:59.868Z,9.38
2023-05-21T07:33:35.575Z,8.70
2023-05-21T07:36:04.207Z,8.75
2023-05-21T07:38:33.199Z,8.80
2023-05-21T07:41:01.687Z,8.70
2023-05-21T07:43:33.024Z,8.73
2023-05-21T07:46:01.495Z,8.30
2023-05-21T07:48:30.468Z,8.20
2023-05-21T07:51:02.768Z,7.47
2023-05-21T07:53:33.376Z,7.60
2023-05-21T07:56:05.674Z,7.38
2023-05-21T07:58:36.386Z,7.15
2023-05-21T08:01:07.072Z,7.05
2023-05-21T08:03:35.678Z,7.30
2023-05-21T08:06:04.480Z,6.70
2023-05-21T08:08:32.969Z,7.30
2023-05-21T08:11:01.957Z,7.03
2023-05-21T08:13:31.692Z,6.93
2023-05-21T08:16:01.770Z,7.40
2023-05-21T08:18:30.809Z,7.32
2023-05-21T08:21:00.509Z,6.80
2023-05-21T08:23:30.164Z,6.65
2023-05-21T08:26:00.988Z,7.38
2023-05-21T08:28:29.520Z,7.22
2023-05-21T08:30:58.433Z,6.75
2023-05-21T08:33:29.327Z,6.68
2023-05-21T08:35:57.901Z,7.22
2023-05-21T08:38:30.563Z,6.25
2023-05-21T08:41:15.904Z,6.60
2023-05-21T08:43:50.027Z,7.22
2023-05-21T08:46:23.473Z,7.13
2023-05-21T08:48:55.104Z,6.60
2023-05-21T08:51:26.909Z,6.57
2023-05-21T08:53:57.159Z,7.40
2023-05-21T08:56:26.222Z,7.03
2023-05-21T08:58:57.683Z,6.85
2023-05-21T09:01:29.422Z,7.00
2023-05-21T09:04:20.774Z,6.90
2023-05-21T09:06:53.544Z,6.50
2023-05-21T09:09:59.731Z,6.70
2023-05-21T09:12:29.542Z,7.25
2023-05-21T09:15:01.915Z,7.18
2023-05-21T09:17:38.585Z,6.90
2023-05-21T09:20:39.148Z,6.55
2023-05-21T09:23:12.485Z,6.65
2023-05-21T09:25:42.036Z,6.97
2023-05-21T09:28:15.991Z,6.85
2023-05-21T09:30:48.865Z,6.93
2023-05-21T09:33:26.947Z,7.10
2023-05-21T09:35:57.512Z,6.75
2023-05-21T09:38:28.021Z,6.63
2023-05-21T09:40:57.642Z,6.60
2023-05-21T09:43:27.459Z,7.20
2023-05-21T09:46:00.411Z,6.90
2023-05-21T09:48:39.152Z,6.43
2023-05-21T09:51:17.043Z,6.75
2023-05-21T09:53:50.351Z,6.72
2023-05-21T09:56:24.553Z,7.25
2023-05-21T09:58:55.702Z,6.05
2023-05-21T10:01:26.127Z,7.13
2023-05-21T10:03:57.957Z,6.93
2023-05-21T10:06:30.048Z,6.57
2023-05-21T10:09:03.270Z,7.15
2023-05-21T10:11:35.122Z,7.00
2023-05-21T10:14:07.551Z,6.85
2023-05-21T10:16:37.874Z,6.30
2023-05-21T10:19:10.914Z,6.95
2023-05-21T10:21:42.433Z,7.55
2023-05-21T10:24:12.035Z,7.00
2023-05-21T10:26:42.568Z,6.70
2023-05-21T10:29:12.278Z,6.88
2023-05-21T10:31:41.442Z,7.18
2023-05-21T10:34:11.658Z,6.65
2023-05-21T10:36:42.605Z,7.68
2023-05-21T10:39:13.345Z,7.07
2023-05-21T10:41:54.423Z,6.30
2023-05-21T10:44:36.476Z,6.97
2023-05-21T10:47:54.588Z,6.50
2023-05-21T10:50:41.978Z,6.45
2023-05-21T10:53:18.072Z,6.80
2023-05-21T10:55:59.830Z,6.80
2023-05-21T10:58:49.032Z,6.60
2023-05-21T11:01:19.385Z,6.53
2023-05-21T11:03:48.822Z,7.03
2023-05-21T11:06:25.398Z,6.88
2023-05-21T11:08:55.944Z,7.15
2023-05-21T11:11:46.050Z,7.20
2023-05-21T11:14:39.304Z,7.05
2023-05-21T11:17:14.173Z,7.00
2023-05-21T11:19:44.097Z,6.40
2023-05-21T11:22:24.280Z,7.05
2023-05-21T11:24:56.061Z,6.25
2023-05-21T11:27:35.767Z,6.35
2023-05-21T11:30:09.401Z,6.35
2023-05-21T11:32:41.892Z,6.63
2023-05-21T11:35:10.552Z,6.85
2023-05-21T11:37:41.984Z,6.20
2023-05-21T11:40:26.096Z,7.05
2023-05-21T11:42:56.499Z,5.95
2023-05-21T11:45:30.936Z,5.97
2023-05-21T11:47:59.694Z,5.30
2023-05-21T11:50:30.853Z,5.22
2023-05-21T11:53:00.901Z,5.57
2023-05-21T11:55:31.237Z,5.25
2023-05-21T11:58:00.378Z,5.50
2023-05-21T12:00:28.836Z,5.70
2023-05-21T12:02:58.931Z,5.90
2023-05-21T12:05:28.222Z,5.55
2023-05-21T12:07:58.442Z,5.57
2023-05-21T12:10:26.992Z,5.38
2023-05-21T12:12:57.551Z,5.70
2023-05-21T12:15:29.430Z,5.63
2023-05-21T12:17:58.183Z,5.88
2023-05-21T12:20:29.143Z,6.20
2023-05-21T12:23:00.632Z,5.70
2023-05-21T12:25:30.531Z,5.60
2023-05-21T12:28:01.479Z,5.68
2023-05-21T12:30:30.407Z,6.15
2023-05-21T12:33:02.073Z,5.93
2023-05-21T12:35:32.862Z,6.00
2023-05-21T12:38:04.062Z,5.50
2023-05-21T12:40:40.545Z,5.50
2023-05-21T12:43:12.057Z,5.75
2023-05-21T12:45:41.189Z,5.72
2023-05-21T12:48:10.070Z,5.80
2023-05-21T12:50:41.855Z,6.38
2023-05-21T17:31:51.272Z,4.20
2023-05-21T17:34:19.828Z,4.57
2023-05-21T17:36:48.227Z,4.13
2023-05-21T17:39:16.653Z,4.72
2023-05-21T17:41:47.572Z,4.60
2023-05-21T21:46:44.383Z,6.35
2023-05-21T21:49:14.368Z,6.13
2023-05-21T21:51:44.514Z,5.85
2023-05-21T21:54:13.196Z,6.95
2023-05-21T21:56:42.403Z,6.55
2023-05-21T21:59:11.533Z,6.65
2023-05-21T22:01:40.315Z,6.50
2023-05-21T22:04:11.412Z,6.45
2023-05-21T22:06:40.154Z,6.63
2023-05-21T22:09:09.462Z,6.72
2023-05-21T22:11:38.553Z,6.90
2023-05-21T22:14:07.942Z,6.15
2023-05-21T22:16:37.145Z,6.35
2023-05-21T22:19:05.987Z,7.40
2023-05-21T22:21:36.120Z,6.75
2023-05-21T22:24:04.747Z,6.18
2023-05-21T22:26:33.308Z,6.53
2023-05-21T22:29:06.532Z,7.57
2023-05-21T22:31:35.245Z,7.10
2023-05-21T22:34:03.841Z,6.50
2023-05-21T22:36:32.357Z,6.50
2023-05-21T22:39:02.390Z,7.03
2023-05-21T22:41:31.185Z,6.80
2023-05-21T22:44:00.048Z,7.07
2023-05-21T22:46:28.865Z,7.05
2023-05-21T22:48:57.654Z,6.88
2023-05-21T22:51:28.863Z,6.72
2023-05-21T22:53:57.589Z,6.45
2023-05-21T22:56:27.674Z,7.07
2023-05-21T22:58:56.349Z,7.22
2023-05-21T23:01:25.133Z,6.15
2023-05-21T23:03:53.791Z,7.25
2023-05-21T23:06:22.522Z,6.60
2023-05-21T23:08:51.310Z,7.20
2023-05-21T23:11:20.071Z,6.47
2023-05-21T23:13:50.180Z,6.75
2023-05-21T23:16:18.985Z,7.15
2023-05-21T23:18:48.852Z,7.03
2023-05-21T23:21:17.667Z,7.03
2023-05-21T23:23:46.221Z,7.05
2023-05-21T23:26:14.681Z,7.18
2023-05-21T23:28:43.207Z,7.28
2023-05-21T23:31:13.247Z,7.00
2023-05-21T23:33:42.086Z,7.28
2023-05-21T23:36:10.840Z,7.43
2023-05-21T23:38:39.285Z,6.70
2023-05-21T23:41:08.029Z,6.45
2023-05-21T23:43:37.171Z,6.75
2023-05-21T23:46:06.179Z,6.78
2023-05-21T23:48:36.179Z,6.47
2023-05-21T23:51:04.940Z,7.57
2023-05-21T23:53:33.598Z,6.78
2023-05-21T23:56:02.107Z,7.30
2023-05-21T23:58:30.654Z,7.30
